createdAt,value
2023-10-03T00:00:26.406Z,13.25
2023-10-03T00:02:56.788Z,12.20
2023-10-03T00:05:25.194Z,12.68
2023-10-03T00:07:55.866Z,11.05
2023-10-03T00:10:23.386Z,10.20
2023-10-03T00:12:52.422Z,12.38
2023-10-03T00:15:22.271Z,13.55
2023-10-03T00:17:49.311Z,13.38
2023-10-03T00:20:17.582Z,11.88
2023-10-03T00:22:45.760Z,12.23
2023-10-03T00:25:20.632Z,15.65
2023-10-03T00:27:52.563Z,14.45
2023-10-03T00:30:20.797Z,15.82
2023-10-03T00:32:54.156Z,15.10
2023-10-03T00:35:21.776Z,14.35
2023-10-03T00:37:51.998Z,15.90
2023-10-03T00:40:23.107Z,12.15
2023-10-03T00:42:50.581Z,11.88
2023-10-03T00:45:22.708Z,18.40
2023-10-03T00:47:50.867Z,14.88
2023-10-03T00:50:20.809Z,13.15
2023-10-03T00:52:56.782Z,12.32
2023-10-03T00:55:28.206Z,10.70
2023-10-03T00:58:08.425Z,11.80
2023-10-03T01:00:42.965Z,11.43
2023-10-03T01:03:33.190Z,10.13
2023-10-03T01:06:11.710Z,10.13
2023-10-03T01:08:47.576Z,10.95
2023-10-03T01:11:20.270Z,9.93
2023-10-03T01:14:00.038Z,10.85
2023-10-03T01:16:33.356Z,10.32
2023-10-03T01:19:11.187Z,10.95
2023-10-03T01:21:39.864Z,10.90
2023-10-03T01:24:07.646Z,12.35
2023-10-03T01:26:35.192Z,11.00
2023-10-03T01:29:04.094Z,10.77
2023-10-03T01:31:31.835Z,14.25
2023-10-03T01:33:58.556Z,12.43
2023-10-03T01:36:28.008Z,11.35
2023-10-03T01:38:54.684Z,11.70
2023-10-03T01:41:21.529Z,12.05
2023-10-03T01:43:48.200Z,11.45
2023-10-03T01:46:15.069Z,12.00
2023-10-03T01:48:43.730Z,12.68
2023-10-03T01:51:10.921Z,12.23
2023-10-03T01:53:41.124Z,12.00
2023-10-03T01:56:08.554Z,10.60
2023-10-03T01:58:35.678Z,12.20
2023-10-03T02:01:02.555Z,10.20
2023-10-03T02:03:32.365Z,12.93
2023-10-03T02:05:59.096Z,12.70
2023-10-03T02:08:27.121Z,12.73
2023-10-03T02:10:54.568Z,14.13
2023-10-03T02:13:24.562Z,13.27
2023-10-03T02:15:54.303Z,14.52
2023-10-03T02:18:22.712Z,12.43
2023-10-03T02:20:54.844Z,15.30
2023-10-03T02:23:25.131Z,12.68
2023-10-03T02:25:56.687Z,12.75
2023-10-03T02:28:30.095Z,12.80
2023-10-03T02:30:58.700Z,11.25
2023-10-03T02:33:25.688Z,13.18
2023-10-03T02:35:52.680Z,14.52
2023-10-03T02:38:26.521Z,11.38
2023-10-03T02:41:03.185Z,13.13
2023-10-03T02:43:35.403Z,14.95
2023-10-03T02:46:08.438Z,11.85
2023-10-03T02:48:37.070Z,14.18
2023-10-03T02:51:04.153Z,14.18
2023-10-03T02:53:32.369Z,12.45
2023-10-03T02:56:00.071Z,15.18
2023-10-03T02:58:26.762Z,13.57
2023-10-03T03:00:57.446Z,14.35
2023-10-03T03:03:31.497Z,12.93
2023-10-03T03:06:00.352Z,14.75
2023-10-03T03:08:30.258Z,20.30
2023-10-03T03:10:58.964Z,21.30
2023-10-03T03:13:30.905Z,26.70
2023-10-03T03:16:01.408Z,28.30
2023-10-03T03:18:33.989Z,27.10
2023-10-03T03:21:03.140Z,24.00
2023-10-03T03:23:36.330Z,22.05
2023-10-03T03:26:18.607Z,16.63
2023-10-03T03:28:51.849Z,15.95
2023-10-03T03:31:27.462Z,13.68
2023-10-03T03:33:59.601Z,13.73
2023-10-03T03:36:36.978Z,14.52
2023-10-03T03:39:15.932Z,16.98
2023-10-03T03:41:44.073Z,17.08
2023-10-03T03:44:14.250Z,20.08
2023-10-03T03:46:42.248Z,18.63
2023-10-03T03:49:21.734Z,18.83
2023-10-03T03:51:50.628Z,21.77
2023-10-03T03:54:17.924Z,18.50
2023-10-03T03:56:44.530Z,17.48
2023-10-03T03:59:12.709Z,15.35
2023-10-03T04:01:39.749Z,16.40
2023-10-03T04:04:09.399Z,22.73
2023-10-03T04:06:37.206Z,22.67
2023-10-03T04:09:09.314Z,19.67
2023-10-03T04:11:37.550Z,20.02
2023-10-03T04:14:07.060Z,13.65
2023-10-03T04:16:41.090Z,14.55
2023-10-03T04:19:10.060Z,15.75
2023-10-03T04:21:37.769Z,14.25
2023-10-03T04:24:06.798Z,10.40
2023-10-03T04:26:35.587Z,12.20
2023-10-03T04:29:03.106Z,13.25
2023-10-03T04:31:29.896Z,12.40
2023-10-03T04:33:57.797Z,13.50
2023-10-03T04:36:27.125Z,11.02
2023-10-03T04:38:54.724Z,12.48
2023-10-03T04:41:22.885Z,12.32
2023-10-03T04:43:51.455Z,12.15
2023-10-03T04:46:18.480Z,10.57
2023-10-03T04:48:45.262Z,11.57
2023-10-03T04:51:15.519Z,16.55
2023-10-03T04:53:42.213Z,10.55
2023-10-03T04:56:10.476Z,10.98
2023-10-03T04:58:37.235Z,11.57
2023-10-03T05:01:04.280Z,11.55
2023-10-03T05:03:32.002Z,10.95
2023-10-03T05:05:58.844Z,12.10
2023-10-03T05:08:26.409Z,10.55
2023-10-03T05:10:55.929Z,11.52
2023-10-03T05:13:23.059Z,11.80
2023-10-03T05:15:49.825Z,13.77
2023-10-03T05:18:17.350Z,10.57
2023-10-03T05:20:44.322Z,14.90
2023-10-03T05:23:11.707Z,12.20
2023-10-03T05:25:39.142Z,10.60
2023-10-03T05:28:06.758Z,10.27
2023-10-03T05:30:36.398Z,11.73
